Time;durP1;ratioP1;P1;durP2;ratioP2;P2;SDS_P1;SDS_P2;PMS_P1;PMS_P2;Temp;Humidity;BMP_temperature;BMP_pressure;BME280_temperature;BME280_humidity;BME280_pressure;Samples;Min_cycle;Max_cycle;Signal;HPM_P1;HPM_P2
2022/10/05 00:01:34;;;;;;;0.50;0.50;;;10.10;99.90;;;;;;5016492;28;20202;-68
2022/10/05 00:04:21;;;;;;;0.88;0.88;;;10.20;99.90;;;;;;5016113;28;20255;-67
2022/10/05 00:07:07;;;;;;;0.93;0.93;;;10.20;99.90;;;;;;5016092;28;20305;-69
2022/10/05 00:09:33;;;;;;;0.50;0.50;;;10.10;99.90;;;;;;5016203;28;20582;-68
2022/10/05 00:12:04;;;;;;;0.63;0.50;;;10.00;99.90;;;;;;5016480;28;20205;-68
2022/10/05 00:14:33;;;;;;;0.95;0.95;;;9.80;99.90;;;;;;5016320;28;20159;-67
2022/10/05 00:17:03;;;;;;;0.40;0.40;;;9.80;99.90;;;;;;5016393;28;20286;-69
2022/10/05 00:19:35;;;;;;;2.78;1.83;;;9.80;99.90;;;;;;5016054;28;20167;-68
2022/10/05 00:22:14;;;;;;;0.30;0.30;;;9.90;99.90;;;;;;5015614;28;20182;-69
2022/10/05 00:24:40;;;;;;;0.38;0.38;;;9.80;99.90;;;;;;5016121;28;20182;-67
2022/10/05 00:27:24;;;;;;;0.53;0.47;;;9.80;99.90;;;;;;5016118;28;20553;-68
2022/10/05 00:29:51;;;;;;;1.15;1.05;;;9.90;99.90;;;;;;5015821;28;20163;-70
2022/10/05 00:32:17;;;;;;;1.17;1.08;;;9.90;99.90;;;;;;5016121;28;20179;-69
2022/10/05 00:34:44;;;;;;;1.20;1.20;;;9.90;99.90;;;;;;5015691;28;20230;-70
2022/10/05 00:37:10;;;;;;;0.70;0.70;;;9.90;99.90;;;;;;5016032;28;20418;-67
2022/10/05 00:39:37;;;;;;;1.75;0.70;;;9.90;99.90;;;;;;5015775;28;20176;-69
2022/10/05 00:42:13;;;;;;;0.50;0.50;;;9.90;99.90;;;;;;5015920;28;20175;-68
2022/10/05 00:45:07;;;;;;;0.85;0.85;;;9.90;99.90;;;;;;5015489;28;20175;-70
2022/10/05 00:47:51;;;;;;;0.40;0.40;;;9.90;99.90;;;;;;5015227;28;20202;-68
2022/10/05 00:50:47;;;;;;;1.42;1.33;;;9.90;99.90;;;;;;5015187;28;20176;-69
2022/10/05 00:53:44;;;;;;;1.05;0.85;;;9.90;99.90;;;;;;5016003;28;20176;-68
2022/10/05 00:56:21;;;;;;;0.60;0.60;;;9.90;99.90;;;;;;5015558;28;20265;-68
2022/10/05 00:59:08;;;;;;;0.77;0.77;;;9.90;99.90;;;;;;5015727;28;20167;-67
2022/10/05 01:02:05;;;;;;;0.65;0.65;;;9.90;99.90;;;;;;5015344;28;20696;-69
2022/10/05 01:04:50;;;;;;;0.50;0.50;;;9.90;99.90;;;;;;5015413;28;20176;-68
2022/10/05 01:07:19;;;;;;;1.95;0.77;;;9.80;99.90;;;;;;5015682;28;20506;-70
2022/10/05 01:10:02;;;;;;;1.27;0.85;;;9.80;99.90;;;;;;5015189;28;20168;-70
2022/10/05 01:12:45;;;;;;;0.50;0.50;;;9.70;99.90;;;;;;5015341;28;20172;-69
2022/10/05 01:15:22;;;;;;;0.60;0.60;;;9.70;99.90;;;;;;5015061;28;20195;-68
2022/10/05 01:18:04;;;;;;;0.60;0.60;;;9.70;99.90;;;;;;5015480;28;20629;-69
2022/10/05 01:20:30;;;;;;;0.60;0.60;;;9.80;99.90;;;;;;5014753;28;20210;-70
2022/10/05 01:23:33;;;;;;;0.53;0.50;;;9.90;99.90;;;;;;5014739;28;20211;-69
2022/10/05 01:26:54;;;;;;;0.50;0.50;;;9.80;99.90;;;;;;5015116;28;20636;-68
2022/10/05 01:29:34;;;;;;;0.40;0.40;;;9.90;99.90;;;;;;4973529;28;20177;-68
2022/10/05 01:32:32;;;;;;;0.98;0.55;;;9.90;99.90;;;;;;4973898;28;20191;-70
2022/10/05 01:35:25;;;;;;;1.48;0.98;;;10.00;99.90;;;;;;5009674;28;20664;-68
2022/10/05 01:38:02;;;;;;;0.93;0.93;;;10.00;99.90;;;;;;5014886;28;20190;-70
2022/10/05 01:40:34;;;;;;;1.10;0.77;;;10.00;99.90;;;;;;5012975;28;20222;-68
2022/10/05 01:43:02;;;;;;;0.50;0.50;;;10.10;99.90;;;;;;5014875;28;20204;-69
2022/10/05 01:45:41;;;;;;;0.52;0.50;;;10.00;99.90;;;;;;5014565;28;20591;-70
2022/10/05 01:48:45;;;;;;;1.02;1.00;;;10.00;99.90;;;;;;5014546;28;20309;-68
2022/10/05 01:51:23;;;;;;;0.68;0.68;;;10.00;99.90;;;;;;5014529;28;20652;-70
2022/10/05 01:54:20;;;;;;;0.40;0.40;;;10.00;99.90;;;;;;5014335;28;20181;-68
2022/10/05 01:57:39;;;;;;;0.95;0.95;;;10.00;99.90;;;;;;5010333;28;20207;-69
2022/10/05 02:00:09;;;;;;;0.30;0.30;;;10.10;99.90;;;;;;4977722;28;20681;-68
2022/10/05 02:02:40;;;;;;;1.25;0.52;;;10.20;99.90;;;;;;5014553;28;20210;-68
2022/10/05 02:05:06;;;;;;;0.82;0.82;;;10.20;99.90;;;;;;5014287;28;20202;-69
2022/10/05 02:07:39;;;;;;;0.50;0.50;;;10.00;99.90;;;;;;5014509;28;20195;-68
2022/10/05 02:10:14;;;;;;;0.40;0.40;;;10.00;99.90;;;;;;5013976;28;20167;-68
2022/10/05 02:12:41;;;;;;;1.13;1.02;;;9.90;99.90;;;;;;5014077;28;20167;-68
2022/10/05 02:15:12;;;;;;;0.30;0.30;;;9.90;99.90;;;;;;5014250;28;20196;-68
2022/10/05 02:17:44;;;;;;;0.75;0.75;;;9.90;99.90;;;;;;5014347;28;20156;-68
2022/10/05 02:20:13;;;;;;;0.50;0.50;;;9.90;99.90;;;;;;5013914;28;20182;-69
2022/10/05 02:22:50;;;;;;;0.90;0.90;;;9.90;99.90;;;;;;5014045;28;20176;-69
2022/10/05 02:25:22;;;;;;;0.85;0.43;;;9.90;99.90;;;;;;5014374;28;20201;-68
2022/10/05 02:28:04;;;;;;;0.40;0.40;;;9.90;99.90;;;;;;5014139;28;20218;-68
2022/10/05 02:30:34;;;;;;;1.05;0.90;;;9.90;99.90;;;;;;5013747;28;20644;-69
2022/10/05 02:33:12;;;;;;;0.40;0.40;;;10.00;99.90;;;;;;5014404;28;20159;-70
2022/10/05 02:35:38;;;;;;;0.60;0.60;;;10.00;99.90;;;;;;5014026;28;20235;-67
2022/10/05 02:38:25;;;;;;;0.57;0.50;;;10.00;99.90;;;;;;5013945;28;20175;-70
2022/10/05 02:41:28;;;;;;;1.05;1.05;;;10.10;99.90;;;;;;5014076;28;20181;-68
2022/10/05 02:44:12;;;;;;;2.47;0.75;;;10.00;99.90;;;;;;5013563;28;20179;-68
2022/10/05 02:47:02;;;;;;;0.52;0.52;;;10.10;99.90;;;;;;5016811;28;20297;-70
2022/10/05 02:49:50;;;;;;;0.70;0.70;;;10.10;99.90;;;;;;5017951;28;20179;-68
2022/10/05 02:52:23;;;;;;;0.80;0.80;;;10.20;99.90;;;;;;5017965;28;20309;-68
2022/10/05 02:54:55;;;;;;;0.52;0.52;;;9.90;99.90;;;;;;5017784;28;20172;-69
2022/10/05 02:57:36;;;;;;;0.45;0.45;;;10.10;99.90;;;;;;5017970;28;20155;-68
2022/10/05 03:00:18;;;;;;;0.43;0.43;;;10.10;99.90;;;;;;5017561;28;20179;-68
2022/10/05 03:02:59;;;;;;;0.45;0.45;;;10.10;99.90;;;;;;5017988;28;20179;-70
2022/10/05 03:05:30;;;;;;;0.55;0.55;;;10.10;99.90;;;;;;5017922;28;20533;-70
2022/10/05 03:08:16;;;;;;;1.85;0.95;;;10.20;99.90;;;;;;5017594;28;20228;-70
2022/10/05 03:11:06;;;;;;;0.30;0.30;;;10.20;99.90;;;;;;5017233;28;20168;-68
2022/10/05 03:13:56;;;;;;;0.68;0.68;;;10.20;99.90;;;;;;5017521;28;20167;-69
2022/10/05 03:16:37;;;;;;;0.95;0.95;;;10.20;99.90;;;;;;5017061;28;20664;-67
2022/10/05 03:19:08;;;;;;;0.40;0.40;;;10.30;99.90;;;;;;5017398;28;20171;-67
2022/10/05 03:22:10;;;;;;;0.40;0.40;;;10.30;99.90;;;;;;5017005;28;20168;-70
2022/10/05 03:24:46;;;;;;;0.30;0.30;;;10.30;99.90;;;;;;5017096;28;20214;-69
2022/10/05 03:27:42;;;;;;;0.50;0.50;;;10.30;99.90;;;;;;5017550;28;20195;-68
2022/10/05 03:30:18;;;;;;;0.50;0.50;;;10.30;99.90;;;;;;5017214;28;20167;-70
2022/10/05 03:33:08;;;;;;;0.50;0.40;;;10.30;99.90;;;;;;5016084;28;20652;-68
2022/10/05 03:36:17;;;;;;;0.50;0.50;;;10.30;99.90;;;;;;5016956;28;20237;-70
2022/10/05 03:39:04;;;;;;;0.70;0.70;;;10.40;99.90;;;;;;5001321;28;20187;-68
2022/10/05 03:41:57;;;;;;;0.35;0.35;;;10.40;99.90;;;;;;5017153;28;20578;-68
2022/10/05 03:44:52;;;;;;;0.50;0.50;;;10.40;99.90;;;;;;5017049;28;20167;-69
2022/10/05 03:47:55;;;;;;;0.40;0.40;;;10.50;99.90;;;;;;5016474;28;20561;-69
2022/10/05 03:50:49;;;;;;;0.50;0.50;;;10.50;99.90;;;;;;5016761;28;20256;-70
2022/10/05 03:53:43;;;;;;;0.77;0.77;;;10.50;99.90;;;;;;5016890;28;20183;-68
2022/10/05 03:56:32;;;;;;;0.70;0.70;;;10.50;99.90;;;;;;5015872;28;20211;-70
2022/10/05 03:59:21;;;;;;;0.45;0.45;;;10.50;99.90;;;;;;5016238;28;20172;-69
2022/10/05 04:01:52;;;;;;;0.90;0.63;;;10.50;99.90;;;;;;5015481;28;20547;-70
2022/10/05 04:04:44;;;;;;;0.77;0.70;;;10.50;99.90;;;;;;5016589;28;20684;-70
2022/10/05 04:07:38;;;;;;;0.75;0.73;;;10.50;99.90;;;;;;5016389;28;20196;-69
2022/10/05 04:10:14;;;;;;;0.95;0.95;;;10.50;99.90;;;;;;5015493;28;20188;-67
2022/10/05 04:12:44;;;;;;;0.30;0.30;;;10.50;99.90;;;;;;5016755;28;20171;-68
2022/10/05 04:15:25;;;;;;;1.65;0.93;;;10.50;99.90;;;;;;5016568;28;20196;-70
2022/10/05 04:17:57;;;;;;;0.40;0.40;;;10.50;99.90;;;;;;5016440;28;20245;-70
2022/10/05 04:20:41;;;;;;;0.70;0.70;;;10.40;99.90;;;;;;5016147;28;20183;-67
2022/10/05 04:23:15;;;;;;;1.27;0.55;;;10.40;99.90;;;;;;5016595;28;20183;-69
2022/10/05 04:25:55;;;;;;;0.85;0.85;;;10.40;99.90;;;;;;5016282;28;20187;-68
2022/10/05 04:28:31;;;;;;;0.40;0.40;;;10.40;99.90;;;;;;5015972;28;20207;-67
2022/10/05 04:30:58;;;;;;;1.67;0.60;;;10.40;99.90;;;;;;5015940;28;20171;-69
2022/10/05 04:33:26;;;;;;;0.90;0.55;;;10.50;99.90;;;;;;5016173;28;20171;-68
2022/10/05 04:36:01;;;;;;;1.60;1.02;;;10.40;99.90;;;;;;5014520;28;20196;-70
2022/10/05 04:38:26;;;;;;;0.47;0.47;;;10.30;99.90;;;;;;5014444;28;20636;-69
2022/10/05 04:41:30;;;;;;;0.50;0.37;;;10.40;99.90;;;;;;5015571;28;20254;-68
2022/10/05 04:44:14;;;;;;;0.50;0.50;;;10.40;99.90;;;;;;5014558;28;20652;-67
2022/10/05 04:47:18;;;;;;;0.50;0.50;;;10.40;99.90;;;;;;5015280;28;20211;-67
2022/10/05 04:50:17;;;;;;;0.30;0.30;;;10.40;99.90;;;;;;5015410;28;20261;-70
2022/10/05 04:53:10;;;;;;;0.43;0.43;;;10.40;99.90;;;;;;5013949;28;20182;-68
2022/10/05 04:55:52;;;;;;;0.40;0.40;;;10.40;99.90;;;;;;5015591;28;20197;-68
2022/10/05 04:58:55;;;;;;;0.50;0.50;;;10.50;99.90;;;;;;5013294;28;20262;-69
2022/10/05 05:01:46;;;;;;;0.50;0.50;;;10.50;99.90;;;;;;5015199;28;20175;-69
2022/10/05 05:05:09;;;;;;;0.75;0.75;;;10.50;99.90;;;;;;5013825;28;20179;-67
2022/10/05 05:07:46;;;;;;;0.70;0.63;;;10.50;99.90;;;;;;4973720;28;20659;-68
2022/10/05 05:10:27;;;;;;;0.40;0.40;;;10.50;99.90;;;;;;4973080;28;20184;-68
2022/10/05 05:13:14;;;;;;;0.47;0.47;;;10.50;99.90;;;;;;4998955;28;20233;-68
2022/10/05 05:16:04;;;;;;;1.30;1.20;;;10.60;99.90;;;;;;5015350;28;20191;-68
2022/10/05 05:18:57;;;;;;;0.52;0.52;;;10.50;99.90;;;;;;5013423;28;20176;-68
2022/10/05 05:21:45;;;;;;;0.50;0.50;;;10.50;99.90;;;;;;5014946;28;20172;-68
2022/10/05 05:24:42;;;;;;;1.05;1.05;;;10.40;99.90;;;;;;5013357;28;20168;-68
2022/10/05 05:27:16;;;;;;;0.60;0.50;;;10.30;99.90;;;;;;5014639;28;20551;-69
2022/10/05 05:29:47;;;;;;;0.50;0.50;;;10.30;99.90;;;;;;5014216;28;20172;-69
2022/10/05 05:33:01;;;;;;;0.40;0.40;;;10.40;99.90;;;;;;5013771;28;20164;-71
2022/10/05 05:35:45;;;;;;;0.30;0.30;;;10.40;99.90;;;;;;4983795;28;20211;-70
2022/10/05 05:38:22;;;;;;;0.57;0.45;;;10.40;99.90;;;;;;5014911;28;20501;-71
2022/10/05 05:41:23;;;;;;;1.25;1.25;;;10.40;99.90;;;;;;5014414;28;20173;-70
2022/10/05 05:44:14;;;;;;;0.30;0.30;;;10.40;99.90;;;;;;5014951;28;20167;-69
2022/10/05 05:46:46;;;;;;;0.30;0.30;;;10.50;99.90;;;;;;5013133;28;20698;-70
2022/10/05 05:49:41;;;;;;;0.38;0.38;;;10.50;99.90;;;;;;5014781;28;20167;-71
2022/10/05 05:52:29;;;;;;;2.47;0.50;;;10.60;99.90;;;;;;5014672;28;20217;-69
2022/10/05 05:55:01;;;;;;;1.20;0.90;;;10.60;99.90;;;;;;5014837;28;20673;-71
2022/10/05 05:57:55;;;;;;;0.80;0.50;;;10.60;99.90;;;;;;5014261;28;20214;-68
2022/10/05 06:00:27;;;;;;;0.85;0.60;;;10.60;99.90;;;;;;5014483;28;20172;-70
2022/10/05 06:03:11;;;;;;;0.60;0.60;;;10.60;99.90;;;;;;5014873;28;20167;-70
2022/10/05 06:05:48;;;;;;;1.13;0.40;;;10.70;99.90;;;;;;5014535;28;20207;-68
2022/10/05 06:08:38;;;;;;;1.02;0.80;;;10.70;99.90;;;;;;5014391;28;20573;-70
2022/10/05 06:11:23;;;;;;;0.30;0.30;;;10.80;99.90;;;;;;5014027;28;20175;-71
2022/10/05 06:13:50;;;;;;;0.77;0.50;;;10.80;99.90;;;;;;5014244;28;20163;-70
2022/10/05 06:16:54;;;;;;;0.40;0.40;;;10.80;99.90;;;;;;5012618;28;20408;-71
2022/10/05 06:19:22;;;;;;;1.10;1.10;;;10.90;99.90;;;;;;4973087;28;20208;-70
2022/10/05 06:22:04;;;;;;;2.47;2.38;;;10.80;99.90;;;;;;5006939;28;20182;-71
2022/10/05 06:24:47;;;;;;;0.40;0.40;;;10.80;99.90;;;;;;5014545;28;20168;-68
2022/10/05 06:27:23;;;;;;;0.68;0.55;;;10.80;99.90;;;;;;5014099;28;20187;-70
2022/10/05 06:30:02;;;;;;;0.30;0.30;;;10.90;99.90;;;;;;5014340;28;20547;-69
2022/10/05 06:32:59;;;;;;;0.60;0.60;;;11.00;99.90;;;;;;5014323;28;20167;-70
2022/10/05 06:35:36;;;;;;;0.60;0.50;;;11.00;99.90;;;;;;5013807;28;20262;-70
2022/10/05 06:38:23;;;;;;;0.30;0.30;;;11.10;99.90;;;;;;5014087;28;20369;-69
2022/10/05 06:40:51;;;;;;;0.43;0.43;;;11.20;99.90;;;;;;5013454;28;20194;-71
2022/10/05 06:43:33;;;;;;;0.50;0.50;;;11.30;99.90;;;;;;5013655;28;20175;-71
2022/10/05 06:46:12;;;;;;;0.63;0.60;;;11.30;99.90;;;;;;5013646;28;20203;-71
2022/10/05 06:48:56;;;;;;;0.88;0.82;;;11.40;99.90;;;;;;5012815;28;20964;-70
2022/10/05 06:51:31;;;;;;;0.60;0.60;;;11.40;99.90;;;;;;5013989;28;20182;-71
2022/10/05 06:54:03;;;;;;;0.60;0.60;;;11.50;99.90;;;;;;5013648;28;20246;-72
2022/10/05 06:56:47;;;;;;;0.50;0.50;;;11.80;99.90;;;;;;5013879;28;20483;-69
2022/10/05 06:59:24;;;;;;;2.10;1.47;;;12.10;99.90;;;;;;5013771;28;20904;-71
2022/10/05 07:02:25;;;;;;;0.93;0.93;;;12.60;99.90;;;;;;5014127;28;20829;-71
2022/10/05 07:05:00;;;;;;;1.20;1.20;;;13.60;99.90;;;;;;5006170;28;20429;-70
2022/10/05 07:07:56;;;;;;;0.43;0.43;;;13.80;99.90;;;;;;5013819;28;20536;-70
2022/10/05 07:10:57;;;;;;;1.47;1.27;;;14.20;99.90;;;;;;5013438;28;20405;-70
2022/10/05 07:13:35;;;;;;;0.60;0.60;;;14.70;99.90;;;;;;5013947;28;20390;-70
2022/10/05 07:16:11;;;;;;;0.67;0.67;;;15.50;99.90;;;;;;5013851;28;20425;-69
2022/10/05 07:19:04;;;;;;;1.33;1.07;;;16.00;99.90;;;;;;5013506;28;20398;-69
2022/10/05 07:21:50;;;;;;;2.23;1.10;;;16.30;99.90;;;;;;5013522;28;20875;-73
2022/10/05 07:24:27;;;;;;;1.17;1.00;;;16.20;99.90;;;;;;5013070;28;20406;-71
2022/10/05 07:27:12;;;;;;;0.77;0.77;;;15.90;99.90;;;;;;5011722;28;20457;-71
2022/10/05 07:29:44;;;;;;;0.60;0.60;;;15.60;99.90;;;;;;5013348;28;20759;-73
2022/10/05 07:32:24;;;;;;;0.97;0.70;;;15.40;99.90;;;;;;5012979;28;20769;-72
2022/10/05 07:34:58;;;;;;;0.87;0.80;;;15.60;99.90;;;;;;5017264;28;20398;-72
2022/10/05 07:37:56;;;;;;;1.90;1.67;;;15.40;99.90;;;;;;5017286;28;20519;-72
2022/10/05 07:40:46;;;;;;;0.80;0.60;;;15.50;99.90;;;;;;5015648;28;20454;-71
2022/10/05 07:43:18;;;;;;;0.60;0.60;;;15.40;99.90;;;;;;5015521;28;20412;-71
2022/10/05 07:46:08;;;;;;;1.60;0.70;;;15.40;99.90;;;;;;5016530;28;20437;-71
2022/10/05 07:48:53;;;;;;;0.77;0.77;;;15.30;99.90;;;;;;5016778;28;20420;-70
2022/10/05 07:51:22;;;;;;;0.93;0.80;;;15.30;99.90;;;;;;5017075;28;20387;-70
2022/10/05 07:54:29;;;;;;;0.60;0.60;;;15.30;99.90;;;;;;5017014;28;20391;-70
2022/10/05 07:57:21;;;;;;;0.70;0.70;;;15.30;99.90;;;;;;4998909;28;20443;-69
2022/10/05 08:00:05;;;;;;;0.87;0.83;;;15.40;99.90;;;;;;5015328;28;20398;-69
2022/10/05 08:02:33;;;;;;;0.80;0.80;;;15.80;99.90;;;;;;5015589;28;20409;-69
2022/10/05 08:05:15;;;;;;;0.60;0.60;;;16.00;99.90;;;;;;5014170;28;20437;-69
2022/10/05 08:07:41;;;;;;;0.50;0.50;;;16.20;99.90;;;;;;5016144;28;20480;-70
2022/10/05 08:10:17;;;;;;;1.10;0.90;;;16.20;99.90;;;;;;5014575;28;20414;-71
2022/10/05 08:13:13;;;;;;;0.77;0.77;;;16.20;99.90;;;;;;5016697;28;20406;-70
2022/10/05 08:15:46;;;;;;;15.20;1.37;;;16.30;99.90;;;;;;5015287;28;20427;-69
2022/10/05 08:18:43;;;;;;;0.57;0.57;;;16.50;99.90;;;;;;5015931;28;20454;-70
2022/10/05 08:21:10;;;;;;;0.87;0.87;;;17.00;99.90;;;;;;5001480;28;20496;-71
2022/10/05 08:23:55;;;;;;;0.73;0.73;;;17.20;99.90;;;;;;5014336;28;20427;-68
2022/10/05 08:26:58;;;;;;;0.63;0.63;;;17.50;99.90;;;;;;5016302;28;20982;-71
2022/10/05 08:30:01;;;;;;;0.83;0.83;;;17.80;99.90;;;;;;5013928;28;20887;-71
2022/10/05 08:32:39;;;;;;;0.53;0.53;;;18.10;99.90;;;;;;5009349;28;20414;-69
2022/10/05 08:35:13;;;;;;;0.43;0.43;;;18.70;99.90;;;;;;5016162;28;20432;-69
2022/10/05 08:37:41;;;;;;;0.50;0.50;;;19.40;99.90;;;;;;5015540;28;20564;-70
2022/10/05 08:40:56;;;;;;;0.50;0.50;;;19.80;98.30;;;;;;5015565;28;20413;-70
2022/10/05 08:43:49;;;;;;;0.93;0.93;;;20.20;96.50;;;;;;5006178;28;20477;-70
2022/10/05 08:46:33;;;;;;;0.40;0.40;;;21.30;93.20;;;;;;5015607;28;20496;-71
2022/10/05 08:49:03;;;;;;;0.50;0.50;;;23.50;92.90;;;;;;5015137;28;20456;-70
2022/10/05 08:51:55;;;;;;;0.40;0.40;;;25.70;81.20;;;;;;5013967;28;20406;-71
2022/10/05 08:54:51;;;;;;;1.03;0.50;;;28.30;65.80;;;;;;5015986;28;20469;-71
2022/10/05 08:57:40;;;;;;;0.30;0.30;;;30.20;56.70;;;;;;4994161;28;20781;-73
2022/10/05 09:00:20;;;;;;;0.40;0.40;;;32.20;49.70;;;;;;5014867;28;20399;-73
2022/10/05 09:02:58;;;;;;;0.50;0.40;;;33.60;44.50;;;;;;5013806;28;20398;-69
2022/10/05 09:05:47;;;;;;;0.40;0.40;;;34.60;40.00;;;;;;5014328;28;20459;-71
2022/10/05 09:08:35;;;;;;;0.50;0.40;;;35.40;38.70;;;;;;5013110;28;20461;-70
2022/10/05 09:11:03;;;;;;;0.40;0.40;;;36.10;38.40;;;;;;5014243;28;20399;-69
2022/10/05 09:13:58;;;;;;;0.40;0.40;;;36.30;35.40;;;;;;5015081;28;20402;-70
2022/10/05 09:17:03;;;;;;;0.40;0.40;;;36.10;34.20;;;;;;5013200;28;20840;-70
2022/10/05 09:19:50;;;;;;;1.00;0.80;;;36.20;33.90;;;;;;5014836;28;20410;-70
2022/10/05 09:22:33;;;;;;;0.80;0.50;;;36.70;32.50;;;;;;5013108;28;20406;-68
2022/10/05 09:25:43;;;;;;;0.40;0.40;;;37.10;33.70;;;;;;5014704;28;20433;-70
2022/10/05 09:28:21;;;;;;;0.47;0.40;;;37.10;30.20;;;;;;5011118;28;20940;-69
2022/10/05 09:31:20;;;;;;;0.40;0.40;;;36.10;30.00;;;;;;5014380;28;20421;-69
2022/10/05 09:34:25;;;;;;;0.40;0.40;;;35.60;30.70;;;;;;5014789;28;20406;-69
2022/10/05 09:37:34;;;;;;;0.70;0.40;;;35.50;31.90;;;;;;5014602;28;20418;-69
2022/10/05 09:40:34;;;;;;;0.40;0.40;;;35.50;30.40;;;;;;4973188;28;20424;-69
2022/10/05 09:43:28;;;;;;;0.60;0.53;;;35.00;29.50;;;;;;5014511;28;20407;-69
2022/10/05 09:46:35;;;;;;;0.40;0.30;;;34.80;29.90;;;;;;5014354;28;20426;-70
2022/10/05 09:49:27;;;;;;;0.37;0.30;;;34.90;30.40;;;;;;5008505;28;20915;-68
2022/10/05 09:51:57;;;;;;;0.30;0.30;;;35.00;32.20;;;;;;5014533;28;20790;-69
2022/10/05 09:55:01;;;;;;;0.40;0.30;;;35.00;29.20;;;;;;5014088;28;20749;-69
2022/10/05 09:58:13;;;;;;;0.40;0.40;;;34.60;30.50;;;;;;5014418;28;20436;-69
2022/10/05 10:00:59;;;;;;;0.30;0.30;;;34.30;30.70;;;;;;4972871;28;20412;-71
2022/10/05 10:03:45;;;;;;;0.40;0.40;;;34.10;30.60;;;;;;5011670;28;20500;-69
2022/10/05 10:06:30;;;;;;;0.30;0.30;;;33.90;30.50;;;;;;5012867;28;20497;-70
2022/10/05 10:09:08;;;;;;;0.33;0.30;;;33.60;31.20;;;;;;5013341;28;20419;-69
2022/10/05 10:11:39;;;;;;;0.30;0.30;;;33.50;31.00;;;;;;5013453;28;21001;-70
2022/10/05 10:14:07;;;;;;;0.40;0.40;;;33.30;31.60;;;;;;5013356;28;20415;-69
2022/10/05 10:16:48;;;;;;;0.40;0.40;;;32.80;30.50;;;;;;5013317;28;20430;-69
2022/10/05 10:19:44;;;;;;;0.30;0.30;;;32.40;31.20;;;;;;5013771;28;20788;-69
2022/10/05 10:22:18;;;;;;;0.40;0.40;;;31.80;30.80;;;;;;5013835;28;20402;-68
2022/10/05 10:25:18;;;;;;;0.40;0.40;;;31.30;31.60;;;;;;5013799;28;20469;-70
2022/10/05 10:28:05;;;;;;;0.40;0.40;;;30.70;32.10;;;;;;5013766;28;20517;-70
2022/10/05 10:30:55;;;;;;;0.30;0.30;;;30.20;33.40;;;;;;5013590;28;20464;-69
2022/10/05 10:33:45;;;;;;;0.50;0.50;;;29.80;34.50;;;;;;5013957;28;20453;-69
2022/10/05 10:36:37;;;;;;;0.40;0.40;;;29.40;34.30;;;;;;5013933;28;20418;-69
2022/10/05 10:39:40;;;;;;;0.50;0.40;;;29.20;35.30;;;;;;5013512;28;20486;-68
2022/10/05 10:42:28;;;;;;;0.40;0.40;;;28.70;36.60;;;;;;5013757;28;20402;-70
2022/10/05 10:45:13;;;;;;;0.53;0.53;;;28.20;38.30;;;;;;5013982;28;20537;-70
2022/10/05 10:47:53;;;;;;;0.40;0.40;;;27.60;43.50;;;;;;5013558;28;20469;-70
2022/10/05 10:51:00;;;;;;;0.30;0.30;;;27.10;40.80;;;;;;5013520;28;20402;-69
2022/10/05 10:53:31;;;;;;;0.30;0.30;;;26.80;41.60;;;;;;4973305;28;20418;-69
2022/10/05 10:56:40;;;;;;;0.50;0.40;;;26.40;45.60;;;;;;5013435;28;20432;-71
2022/10/05 10:59:26;;;;;;;0.50;0.40;;;25.90;43.10;;;;;;5013636;28;20746;-71
2022/10/05 11:02:22;;;;;;;0.40;0.40;;;25.60;45.20;;;;;;5013447;28;20407;-72
2022/10/05 11:05:12;;;;;;;0.30;0.30;;;25.00;43.20;;;;;;5013300;28;20448;-70
2022/10/05 11:07:56;;;;;;;0.30;0.30;;;25.20;44.20;;;;;;5015349;28;20446;-70
2022/10/05 11:10:34;;;;;;;0.67;0.67;;;25.00;43.70;;;;;;5016809;28;20409;-72
2022/10/05 11:13:14;;;;;;;0.40;0.40;;;24.70;48.00;;;;;;5017539;28;20381;-73
2022/10/05 11:15:59;;;;;;;0.30;0.30;;;24.40;45.30;;;;;;5015684;28;20945;-72
2022/10/05 11:18:48;;;;;;;0.40;0.40;;;24.30;46.70;;;;;;5017742;28;20890;-72
2022/10/05 11:21:30;;;;;;;0.30;0.30;;;24.20;45.90;;;;;;5013491;28;20458;-72
2022/10/05 11:24:39;;;;;;;0.30;0.30;;;24.10;44.80;;;;;;5017616;28;20829;-71
2022/10/05 11:27:32;;;;;;;0.50;0.40;;;24.20;45.20;;;;;;4958616;28;20451;-70
2022/10/05 11:30:13;;;;;;;0.50;0.40;;;24.10;43.90;;;;;;5016489;28;20402;-71
2022/10/05 11:33:00;;;;;;;0.30;0.30;;;24.00;49.20;;;;;;5017055;28;20402;-68
2022/10/05 11:35:41;;;;;;;0.40;0.30;;;23.90;51.40;;;;;;5016902;28;20424;-72
2022/10/05 11:38:35;;;;;;;0.30;0.30;;;23.80;50.10;;;;;;5016902;28;20373;-70
2022/10/05 11:41:44;;;;;;;0.47;0.47;;;23.60;47.70;;;;;;5014504;28;20426;-71
2022/10/05 11:44:30;;;;;;;0.50;0.50;;;23.50;47.20;;;;;;5001024;28;20502;-68
2022/10/05 11:47:20;;;;;;;0.30;0.30;;;23.50;48.10;;;;;;5016524;28;20471;-72
2022/10/05 11:49:52;;;;;;;0.40;0.40;;;23.40;46.30;;;;;;5016405;28;20398;-71
2022/10/05 11:52:26;;;;;;;0.30;0.30;;;23.50;47.60;;;;;;5016498;28;20382;-70
2022/10/05 11:55:15;;;;;;;0.47;0.47;;;23.40;48.30;;;;;;5016520;28;20398;-70
2022/10/05 11:57:53;;;;;;;0.40;0.40;;;23.40;46.90;;;;;;5009944;28;20580;-70
2022/10/05 12:00:31;;;;;;;0.30;0.30;;;23.30;45.20;;;;;;5016398;28;20409;-71
2022/10/05 12:03:24;;;;;;;0.30;0.30;;;23.20;53.30;;;;;;5016597;28;20406;-69
2022/10/05 12:06:09;;;;;;;0.30;0.30;;;23.00;53.90;;;;;;5016297;28;20508;-71
2022/10/05 12:08:56;;;;;;;2.70;0.50;;;22.90;50.40;;;;;;5016425;28;20782;-71
2022/10/05 12:11:33;;;;;;;0.30;0.30;;;22.80;57.40;;;;;;5016049;28;20397;-69
2022/10/05 12:14:11;;;;;;;0.30;0.30;;;22.60;57.00;;;;;;5016394;28;20404;-70
2022/10/05 12:16:48;;;;;;;0.30;0.30;;;22.30;53.90;;;;;;5016425;28;20439;-71
2022/10/05 12:19:16;;;;;;;0.30;0.30;;;22.30;53.80;;;;;;5015454;28;20762;-72
2022/10/05 12:21:58;;;;;;;0.40;0.40;;;22.30;58.10;;;;;;5016174;28;20464;-71
2022/10/05 12:25:00;;;;;;;0.30;0.30;;;22.30;52.40;;;;;;5016119;28;20432;-70
2022/10/05 12:27:32;;;;;;;0.30;0.30;;;22.40;52.40;;;;;;5016053;28;20603;-71
2022/10/05 12:30:15;;;;;;;0.40;0.40;;;22.50;52.80;;;;;;5015938;28;20458;-70
2022/10/05 12:32:54;;;;;;;0.30;0.30;;;22.40;52.40;;;;;;5015836;28;20401;-70
2022/10/05 12:35:31;;;;;;;0.30;0.30;;;22.00;51.20;;;;;;5015847;28;20516;-71
2022/10/05 12:38:14;;;;;;;0.40;0.40;;;21.80;58.30;;;;;;5015916;28;20828;-71
2022/10/05 12:40:43;;;;;;;0.40;0.40;;;21.80;53.00;;;;;;5015608;28;20379;-69
2022/10/05 12:43:21;;;;;;;0.40;0.40;;;21.80;54.60;;;;;;5015713;28;20411;-72
2022/10/05 12:46:21;;;;;;;0.30;0.30;;;21.80;54.70;;;;;;5015293;28;20490;-72
2022/10/05 12:49:27;;;;;;;1.80;0.50;;;21.60;55.40;;;;;;5015293;28;20415;-71
2022/10/05 12:52:03;;;;;;;0.40;0.40;;;21.50;53.70;;;;;;5015423;28;20410;-71
2022/10/05 12:54:57;;;;;;;0.30;0.30;;;21.30;58.10;;;;;;5015351;28;20453;-71
2022/10/05 12:57:31;;;;;;;0.40;0.40;;;21.20;61.10;;;;;;5015420;28;20407;-69
2022/10/05 13:00:12;;;;;;;0.30;0.30;;;21.00;61.90;;;;;;5015149;28;20453;-71
2022/10/05 13:02:49;;;;;;;0.60;0.60;;;20.90;60.40;;;;;;5015429;28;20864;-69
2022/10/05 13:05:51;;;;;;;0.30;0.30;;;20.80;61.70;;;;;;5015338;28;20537;-70
2022/10/05 13:08:43;;;;;;;0.30;0.30;;;20.70;58.90;;;;;;4980851;28;20472;-68
2022/10/05 13:11:30;;;;;;;0.47;0.47;;;20.50;60.60;;;;;;5014988;28;20418;-72
2022/10/05 13:14:07;;;;;;;0.40;0.40;;;20.40;59.80;;;;;;5015193;28;20907;-70
2022/10/05 13:16:49;;;;;;;1.03;0.83;;;20.20;66.80;;;;;;5014900;28;20771;-70
2022/10/05 13:19:21;;;;;;;0.40;0.40;;;19.90;69.50;;;;;;5014990;28;20765;-69
2022/10/05 13:21:53;;;;;;;1.33;1.23;;;19.60;66.90;;;;;;5015075;28;20413;-72
2022/10/05 13:24:27;;;;;;;0.30;0.30;;;19.60;64.50;;;;;;5015010;28;20838;-71
2022/10/05 13:27:02;;;;;;;0.50;0.50;;;19.40;71.40;;;;;;5014818;28;20451;-70
2022/10/05 13:29:39;;;;;;;0.30;0.30;;;19.20;72.40;;;;;;5013933;28;20401;-70
2022/10/05 13:32:32;;;;;;;0.30;0.30;;;18.90;73.40;;;;;;5014955;28;20398;-72
2022/10/05 13:35:01;;;;;;;0.40;0.40;;;18.50;83.30;;;;;;5014817;28;20400;-71
2022/10/05 13:37:45;;;;;;;0.30;0.30;;;18.60;76.20;;;;;;5014502;28;20417;-69
2022/10/05 13:40:37;;;;;;;0.60;0.60;;;18.50;79.00;;;;;;5014381;28;20410;-71
2022/10/05 13:43:15;;;;;;;0.47;0.47;;;18.60;79.20;;;;;;5014768;28;20407;-68
2022/10/05 13:45:53;;;;;;;0.40;0.40;;;18.60;84.20;;;;;;5014319;28;20426;-70
2022/10/05 13:48:40;;;;;;;0.30;0.30;;;18.50;82.30;;;;;;5014314;28;20445;-69
2022/10/05 13:51:28;;;;;;;0.50;0.50;;;18.50;81.60;;;;;;5014322;28;20410;-68
2022/10/05 13:54:14;;;;;;;2.10;0.77;;;18.50;86.10;;;;;;5014640;28;20395;-71
2022/10/05 13:56:54;;;;;;;7.60;0.80;;;18.40;90.00;;;;;;5014327;28;20434;-69
2022/10/05 13:59:31;;;;;;;0.50;0.50;;;18.20;91.20;;;;;;5014244;28;20820;-70
2022/10/05 14:02:11;;;;;;;0.50;0.50;;;18.10;88.30;;;;;;5014419;28;20407;-70
2022/10/05 14:04:57;;;;;;;0.40;0.40;;;18.10;90.20;;;;;;5014361;28;20448;-71
2022/10/05 14:07:30;;;;;;;0.40;0.40;;;18.10;91.50;;;;;;5014302;28;20522;-70
2022/10/05 14:09:57;;;;;;;0.70;0.43;;;17.90;93.30;;;;;;5014329;28;20892;-71
2022/10/05 14:12:25;;;;;;;0.50;0.50;;;17.80;93.20;;;;;;5014198;28;20485;-71
2022/10/05 14:14:56;;;;;;;0.40;0.40;;;17.80;95.20;;;;;;5014124;28;20410;-71